Time;durP1;ratioP1;P1;durP2;ratioP2;P2;SDS_P1;SDS_P2;PMS_P1;PMS_P2;Temp;Humidity;BMP_temperature;BMP_pressure;BME280_temperature;BME280_humidity;BME280_pressure;Samples;Min_cycle;Max_cycle;Signal;HPM_P1;HPM_P2
2023/05/23 00:01:45;;;;;;;19.33;12.48;;;;;;;20.12;47.36;101885.88;16109394;19;131650;-39
2023/05/23 00:07:07;;;;;;;19.13;12.50;;;;;;;20.12;47.18;101885.88;16113890;19;129861;-39
2023/05/23 00:12:29;;;;;;;16.15;12.18;;;;;;;20.10;47.15;101877.78;16112737;19;130853;-39
2023/05/23 00:17:51;;;;;;;15.90;11.45;;;;;;;20.10;47.64;101894.44;16109054;19;130377;-40
2023/05/23 00:23:17;;;;;;;19.73;11.98;;;;;;;20.10;47.58;101888.88;16113459;19;129982;-43
2023/05/23 00:28:40;;;;;;;15.73;11.80;;;;;;;20.09;47.41;101901.06;16111286;19;131404;-39
2023/05/23 00:34:01;;;;;;;14.45;11.10;;;;;;;20.09;47.38;101903.84;16103752;19;131283;-39
2023/05/23 00:39:23;;;;;;;19.05;11.88;;;;;;;20.08;47.40;101898.50;16110200;19;130598;-41
2023/05/23 00:44:47;;;;;;;15.75;11.40;;;;;;;20.08;47.17;101906.84;16105417;19;131252;-42
2023/05/23 00:50:11;;;;;;;19.13;11.63;;;;;;;20.07;47.07;101917.13;16110510;19;130175;-39
2023/05/23 00:55:33;;;;;;;19.30;11.38;;;;;;;20.06;47.49;101914.59;16114225;19;129553;-39
2023/05/23 01:00:55;;;;;;;15.45;10.80;;;;;;;20.04;47.24;101911.19;16107691;19;130441;-40
2023/05/23 01:06:17;;;;;;;15.93;10.48;;;;;;;20.04;46.97;101912.03;16107394;19;131304;-42
2023/05/23 01:11:47;;;;;;;14.57;10.05;;;;;;;20.06;47.23;101909.03;16106328;19;131416;-39
2023/05/23 01:17:18;;;;;;;15.57;10.32;;;;;;;20.04;47.11;101911.19;16108409;19;129982;-45
2023/05/23 01:23:01;;;;;;;14.27;9.48;;;;;;;20.02;46.92;101924.47;16105916;19;129283;-40
2023/05/23 01:28:28;;;;;;;13.95;9.98;;;;;;;20.01;46.80;101914.44;16113688;19;129549;-44
2023/05/23 01:33:52;;;;;;;14.60;9.18;;;;;;;19.99;47.09;101909.06;16101615;19;134120;-42
2023/05/23 01:39:14;;;;;;;14.38;8.88;;;;;;;19.98;47.10;101926.81;16107810;19;130849;-40
2023/05/23 01:44:37;;;;;;;12.80;8.73;;;;;;;19.97;46.86;101931.50;16114372;19;129758;-44
2023/05/23 01:50:01;;;;;;;12.18;8.57;;;;;;;19.98;46.98;101937.94;16103135;19;129747;-43
2023/05/23 01:55:25;;;;;;;12.43;7.85;;;;;;;19.98;46.61;101929.59;16105618;19;129396;-45
2023/05/23 02:00:47;;;;;;;10.50;8.32;;;;;;;19.97;46.74;101937.06;16110892;19;132247;-42
2023/05/23 02:06:09;;;;;;;11.13;7.70;;;;;;;19.97;46.52;101950.13;16105856;19;130066;-49
2023/05/23 02:11:31;;;;;;;11.95;8.77;;;;;;;19.95;46.69;101952.28;16105477;19;130684;-41
2023/05/23 02:16:53;;;;;;;13.40;8.00;;;;;;;19.93;46.92;101960.84;16117708;19;131088;-44
2023/05/23 02:22:15;;;;;;;10.93;8.00;;;;;;;19.93;46.59;101951.66;16120982;19;129810;-41
2023/05/23 02:27:37;;;;;;;11.93;7.95;;;;;;;19.90;46.68;101958.53;16118037;19;130038;-39
2023/05/23 02:33:04;;;;;;;10.63;7.55;;;;;;;19.92;46.00;101966.63;16117069;19;131248;-40
2023/05/23 02:38:26;;;;;;;12.88;7.93;;;;;;;19.89;46.38;101967.94;16116691;19;131276;-40
2023/05/23 02:43:48;;;;;;;12.27;7.82;;;;;;;19.86;46.39;101968.38;16115795;19;130761;-39
2023/05/23 02:49:09;;;;;;;12.15;7.40;;;;;;;19.86;45.92;101971.16;16117710;19;129526;-39
2023/05/23 02:54:31;;;;;;;11.00;7.68;;;;;;;19.84;45.88;101974.19;16115180;19;130178;-42
2023/05/23 02:59:53;;;;;;;13.43;7.45;;;;;;;19.84;45.81;101973.31;16116281;19;130127;-39
2023/05/23 03:05:15;;;;;;;11.98;7.65;;;;;;;19.83;45.82;101975.25;16118150;19;131936;-39
2023/05/23 03:10:37;;;;;;;11.20;7.45;;;;;;;19.83;45.75;101977.16;16115085;19;130689;-39
2023/05/23 03:15:59;;;;;;;14.15;8.05;;;;;;;19.81;46.02;101984.91;16112289;19;129729;-41
2023/05/23 03:21:21;;;;;;;12.13;7.13;;;;;;;19.81;45.96;101984.91;16115674;19;130615;-40
2023/05/23 03:26:44;;;;;;;9.70;6.90;;;;;;;19.81;45.76;101979.34;16112722;19;129757;-41
2023/05/23 03:32:05;;;;;;;11.70;6.95;;;;;;;19.81;45.87;101990.44;16114473;19;132546;-42
2023/05/23 03:37:27;;;;;;;13.00;6.97;;;;;;;19.80;45.36;101988.75;16115884;19;130631;-40
2023/05/23 03:43:04;;;;;;;11.25;6.57;;;;;;;19.81;45.32;102007.94;16112387;19;131440;-40
2023/05/23 03:48:26;;;;;;;12.55;7.32;;;;;;;19.79;45.42;101989.81;16111499;19;129751;-39
2023/05/23 03:53:48;;;;;;;9.35;6.18;;;;;;;19.77;45.36;101990.03;16114603;19;131529;-42
2023/05/23 03:59:10;;;;;;;10.73;6.95;;;;;;;19.78;45.86;101993.69;16116158;19;134694;-42
2023/05/23 04:04:32;;;;;;;10.65;6.50;;;;;;;19.78;45.51;101985.34;16111918;19;131174;-39
2023/05/23 04:09:54;;;;;;;11.98;6.72;;;;;;;19.78;45.36;101990.91;16110773;19;129591;-39
2023/05/23 04:15:16;;;;;;;11.65;6.60;;;;;;;19.78;45.57;101996.44;16112553;19;130522;-40
2023/05/23 04:20:38;;;;;;;9.48;6.50;;;;;;;19.78;45.72;101996.44;16109832;19;130864;-41
2023/05/23 04:26:00;;;;;;;10.55;5.90;;;;;;;19.77;45.45;101997.53;16112396;19;129804;-40
2023/05/23 04:31:22;;;;;;;10.32;5.70;;;;;;;19.78;45.62;102002.00;16105173;19;131069;-39
2023/05/23 04:36:44;;;;;;;9.52;5.32;;;;;;;19.78;45.36;102015.88;16109465;19;130120;-42
2023/05/23 04:42:06;;;;;;;10.32;6.03;;;;;;;19.78;45.75;102013.13;16110899;19;131601;-40
2023/05/23 04:47:28;;;;;;;13.93;5.50;;;;;;;19.77;45.76;102016.97;16106574;19;131035;-41
2023/05/23 04:52:50;;;;;;;7.90;5.10;;;;;;;19.75;45.66;102019.97;16111375;19;132915;-41
2023/05/23 04:58:12;;;;;;;10.10;5.20;;;;;;;19.75;45.35;102022.75;16107649;19;130745;-40
2023/05/23 05:03:34;;;;;;;11.60;5.40;;;;;;;19.76;45.03;102031.91;16109220;19;131572;-40
2023/05/23 05:08:56;;;;;;;11.02;5.63;;;;;;;19.74;45.21;102034.06;16105211;19;130042;-40
2023/05/23 05:14:17;;;;;;;9.63;5.68;;;;;;;19.73;45.29;102037.91;16103227;19;129521;-42
2023/05/23 05:19:39;;;;;;;9.18;5.70;;;;;;;19.73;45.22;102037.91;16109307;19;129926;-40
2023/05/23 05:25:02;;;;;;;15.25;5.40;;;;;;;19.71;45.66;102043.72;16103111;19;130985;-41
2023/05/23 05:30:24;;;;;;;17.73;5.60;;;;;;;19.75;45.92;102041.31;16110445;19;130139;-40
2023/05/23 05:35:46;;;;;;;18.48;6.43;;;;;;;19.76;45.82;102051.34;16110007;19;129608;-44
2023/05/23 05:41:08;;;;;;;17.45;6.65;;;;;;;19.76;45.37;102056.91;16106170;19;130484;-41
2023/05/23 05:46:30;;;;;;;20.83;5.28;;;;;;;19.76;45.44;102071.63;16118071;19;134187;-44
2023/05/23 05:51:52;;;;;;;14.65;5.38;;;;;;;19.76;45.52;102070.78;16123719;19;131483;-41
2023/05/23 05:57:14;;;;;;;10.38;5.70;;;;;;;19.75;45.70;102077.41;16126426;19;130763;-44
2023/05/23 06:02:35;;;;;;;16.13;5.97;;;;;;;19.75;45.64;102069.97;16122491;19;130458;-40
2023/05/23 06:07:57;;;;;;;13.68;5.65;;;;;;;19.74;45.09;102082.13;16125362;19;129819;-43
2023/05/23 06:13:19;;;;;;;19.33;5.75;;;;;;;19.75;44.85;102091.31;16125386;19;130295;-40
2023/05/23 06:18:41;;;;;;;21.75;5.68;;;;;;;19.74;45.26;102089.59;16122966;19;130159;-40
2023/05/23 06:24:03;;;;;;;21.77;5.65;;;;;;;19.74;44.95;102103.47;16118357;19;131109;-44
2023/05/23 06:29:25;;;;;;;20.45;6.18;;;;;;;19.76;44.95;102101.34;16122842;19;132496;-46
2023/05/23 06:34:47;;;;;;;16.20;5.47;;;;;;;19.82;44.59;102103.19;16125954;19;129589;-42
2023/05/23 06:40:09;;;;;;;18.00;4.80;;;;;;;19.85;45.05;102113.84;16119381;19;131288;-41
2023/05/23 06:45:33;;;;;;;19.38;5.70;;;;;;;19.85;45.00;102113.84;16120763;19;129641;-43
2023/05/23 06:50:55;;;;;;;17.17;5.65;;;;;;;19.84;44.89;102117.72;16117863;19;130709;-41
2023/05/23 06:56:17;;;;;;;15.93;5.22;;;;;;;19.84;44.51;102128.81;16117171;19;130817;-43
2023/05/23 07:01:39;;;;;;;15.73;5.30;;;;;;;19.84;44.54;102140.78;16121811;19;130082;-40
2023/05/23 07:07:01;;;;;;;15.95;4.85;;;;;;;19.84;44.29;102145.47;16122638;19;129846;-43
2023/05/23 07:12:23;;;;;;;17.17;4.78;;;;;;;19.82;43.98;102142.94;16119003;19;129551;-43
2023/05/23 07:17:45;;;;;;;20.85;4.47;;;;;;;19.83;44.26;102143.78;16122120;19;130917;-43
2023/05/23 07:23:07;;;;;;;14.05;4.53;;;;;;;19.84;43.74;102148.25;16121034;19;130322;-42
2023/05/23 07:28:29;;;;;;;23.25;5.72;;;;;;;19.91;43.74;102159.31;16118035;19;129843;-43
2023/05/23 07:33:51;;;;;;;12.77;4.93;;;;;;;19.98;43.18;102155.41;16120345;19;129664;-49
2023/05/23 07:39:21;;;;;;;15.55;4.53;;;;;;;20.08;43.16;102159.63;16118808;19;129322;-42
2023/05/23 07:44:43;;;;;;;12.55;4.90;;;;;;;20.15;43.21;102163.22;16115030;19;129535;-43
2023/05/23 07:50:06;;;;;;;15.95;5.18;;;;;;;20.26;42.73;102170.81;16120447;19;132238;-41
2023/05/23 07:55:28;;;;;;;10.38;4.40;;;;;;;20.37;43.12;102162.81;16117543;19;130470;-44
2023/05/23 08:00:49;;;;;;;19.23;5.03;;;;;;;20.41;42.99;102177.97;16114857;19;129336;-40
2023/05/23 08:06:13;;;;;;;11.77;4.82;;;;;;;20.39;42.56;102180.97;16113487;19;129528;-46
2023/05/23 08:11:35;;;;;;;16.10;4.60;;;;;;;20.34;42.94;102188.28;16117117;19;129521;-43
2023/05/23 08:16:57;;;;;;;10.93;4.60;;;;;;;20.32;42.62;102196.00;16120117;19;129887;-45
2023/05/23 08:22:19;;;;;;;16.80;5.07;;;;;;;20.28;42.54;102206.72;16113079;19;130429;-42
2023/05/23 08:27:41;;;;;;;11.43;5.00;;;;;;;20.23;42.08;102209.34;16119888;19;130313;-42
2023/05/23 08:33:06;;;;;;;10.90;4.43;;;;;;;20.20;42.11;102198.66;16115031;19;129294;-42
2023/05/23 08:38:28;;;;;;;16.05;4.70;;;;;;;20.17;42.47;102211.09;16119650;19;130141;-46
2023/05/23 08:43:50;;;;;;;11.65;4.78;;;;;;;20.18;42.47;102212.81;16118136;19;131900;-42
2023/05/23 08:49:16;;;;;;;12.13;4.50;;;;;;;20.16;42.49;102209.38;16118540;19;130851;-44
2023/05/23 08:54:42;;;;;;;11.18;4.20;;;;;;;20.14;42.07;102209.59;16116418;19;130043;-41
2023/05/23 09:00:09;;;;;;;11.80;4.97;;;;;;;20.13;42.29;102219.00;16106691;19;130400;-42
2023/05/23 09:05:32;;;;;;;12.63;4.70;;;;;;;20.15;42.01;102227.13;16111409;19;130880;-41
2023/05/23 09:10:54;;;;;;;14.77;5.13;;;;;;;20.17;41.96;102219.44;16113951;19;130744;-41
2023/05/23 09:16:17;;;;;;;12.10;4.80;;;;;;;20.12;41.58;102219.25;16104426;19;129690;-40
2023/05/23 09:21:44;;;;;;;11.68;5.13;;;;;;;20.08;41.60;102212.44;16096581;19;130939;-40
2023/05/23 09:27:07;;;;;;;14.55;4.93;;;;;;;20.03;41.12;102217.81;16107682;19;129830;-43
2023/05/23 09:32:29;;;;;;;13.23;5.40;;;;;;;20.03;41.26;102220.59;16108580;19;131870;-40
2023/05/23 09:37:54;;;;;;;12.02;5.00;;;;;;;20.07;40.97;102221.84;16109804;19;129807;-39
2023/05/23 09:43:17;;;;;;;9.32;4.65;;;;;;;20.08;41.11;102223.53;16105810;19;129456;-39
2023/05/23 09:48:39;;;;;;;8.82;4.45;;;;;;;20.05;40.77;102216.50;16105056;19;130646;-41
2023/05/23 09:54:01;;;;;;;11.07;5.22;;;;;;;20.04;40.88;102225.09;16107471;19;129523;-42
2023/05/23 09:59:27;;;;;;;10.23;4.25;;;;;;;19.99;40.78;102218.25;16107581;19;131605;-42
2023/05/23 10:04:51;;;;;;;8.25;4.32;;;;;;;19.98;40.60;102212.91;16104981;19;129716;-39
2023/05/23 10:10:14;;;;;;;8.73;4.38;;;;;;;19.98;40.65;102224.84;16106079;19;132506;-39
2023/05/23 10:15:39;;;;;;;9.77;4.53;;;;;;;19.98;40.62;102230.41;16106173;19;129954;-40
2023/05/23 10:21:08;;;;;;;6.60;3.50;;;;;;;19.98;40.20;102222.06;16106790;19;129972;-39
2023/05/23 10:26:30;;;;;;;8.60;3.30;;;;;;;19.99;40.65;102221.03;16110683;19;134126;-40
2023/05/23 10:31:55;;;;;;;6.10;3.50;;;;;;;19.99;40.16;102226.59;16110590;19;131130;-38
2023/05/23 10:37:45;;;;;;;8.95;3.38;;;;;;;20.01;40.40;102223.59;16118192;19;129685;-39
2023/05/23 10:43:43;;;;;;;7.88;3.25;;;;;;;20.01;39.95;102229.13;16120372;19;130503;-39
2023/05/23 10:49:07;;;;;;;5.15;2.70;;;;;;;20.04;39.92;102220.38;16119591;19;129811;-39
2023/05/23 10:54:35;;;;;;;7.43;3.15;;;;;;;20.04;39.81;102219.53;16116765;19;131459;-39
2023/05/23 10:59:56;;;;;;;10.25;2.90;;;;;;;20.02;39.62;102224.44;16120896;19;129828;-39
2023/05/23 11:05:22;;;;;;;5.90;2.95;;;;;;;20.03;39.94;102228.94;16120936;19;130311;-39
2023/05/23 11:11:03;;;;;;;6.75;2.78;;;;;;;20.08;39.53;102217.97;16120086;19;129735;-40
2023/05/23 11:16:29;;;;;;;6.63;2.80;;;;;;;20.05;39.77;102221.22;16119978;19;130189;-38
2023/05/23 11:21:58;;;;;;;6.65;2.88;;;;;;;20.04;39.22;102223.13;16120127;19;129310;-39
2023/05/23 11:27:40;;;;;;;6.97;2.75;;;;;;;20.03;38.89;102231.72;16120533;19;131366;-39
2023/05/23 11:33:12;;;;;;;9.90;2.72;;;;;;;20.01;39.40;102228.31;16120090;19;129000;-40
2023/05/23 11:38:34;;;;;;;9.25;2.53;;;;;;;20.01;39.31;102222.75;16119406;19;130327;-38
2023/05/23 11:43:58;;;;;;;10.45;3.63;;;;;;;20.03;38.94;102228.94;16112641;19;129620;-38
2023/05/23 11:49:20;;;;;;;8.60;2.95;;;;;;;20.05;38.94;102237.91;16119910;19;131487;-39
2023/05/23 11:54:42;;;;;;;9.35;3.00;;;;;;;20.06;38.53;102221.00;16117709;19;129458;-41
2023/05/23 12:00:08;;;;;;;10.75;2.30;;;;;;;20.07;38.85;102228.25;16116676;19;129770;-38
2023/05/23 12:05:30;;;;;;;12.57;3.40;;;;;;;20.07;38.23;102224.59;16118417;19;129770;-39
2023/05/23 12:10:56;;;;;;;9.60;2.58;;;;;;;20.09;38.42;102233.56;16119208;19;130573;-38
2023/05/23 12:16:18;;;;;;;;;;;;;;;20.04;38.02;102227.84;16118799;19;131637;-38
2023/05/23 12:21:47;;;;;;;10.75;2.15;;;;;;;20.06;37.98;102225.72;16117769;19;130707;-39
2023/05/23 12:27:09;;;;;;;10.10;2.80;;;;;;;20.03;37.68;102224.22;16115696;19;130168;-39
2023/05/23 12:32:32;;;;;;;9.18;2.70;;;;;;;20.03;38.05;102227.00;16116462;19;130316;-39
2023/05/23 12:37:55;;;;;;;8.82;2.30;;;;;;;20.07;37.82;102232.94;16117448;19;131994;-38
2023/05/23 12:43:17;;;;;;;11.27;3.13;;;;;;;20.03;37.56;102232.56;16112156;19;130106;-38
2023/05/23 12:48:39;;;;;;;10.68;2.80;;;;;;;20.05;37.84;102235.97;16115827;19;129932;-38
2023/05/23 12:54:01;;;;;;;8.45;2.72;;;;;;;20.06;37.58;102229.31;16115121;19;130352;-40
2023/05/23 12:59:23;;;;;;;9.55;2.92;;;;;;;20.04;37.28;102230.63;16114843;19;130025;-40
2023/05/23 13:04:45;;;;;;;14.20;3.15;;;;;;;20.06;37.42;102242.38;16113017;19;130506;-38
2023/05/23 13:10:08;;;;;;;13.88;3.47;;;;;;;20.03;37.19;102237.25;16111480;19;130205;-39
2023/05/23 13:15:30;;;;;;;11.35;2.67;;;;;;;20.04;37.05;102233.41;16114284;19;132391;-38
2023/05/23 13:20:53;;;;;;;12.43;2.90;;;;;;;20.03;37.15;102237.25;16112035;19;130077;-38
2023/05/23 13:26:16;;;;;;;12.70;2.75;;;;;;;20.05;37.38;102230.41;16112614;19;131192;-39
2023/05/23 13:31:38;;;;;;;15.10;3.10;;;;;;;20.06;37.08;102228.50;16110835;19;130117;-37
2023/05/23 13:37:00;;;;;;;10.70;3.30;;;;;;;20.06;36.85;102220.16;16109902;19;129609;-38
2023/05/23 13:42:22;;;;;;;10.90;3.30;;;;;;;20.07;36.79;102225.47;16110802;19;130650;-38
2023/05/23 13:47:45;;;;;;;9.55;3.03;;;;;;;20.17;37.71;102221.34;16115601;19;130938;-39
2023/05/23 13:53:13;;;;;;;9.40;2.78;;;;;;;20.21;37.82;102217.88;16108730;19;129824;-39
2023/05/23 13:58:35;;;;;;;8.88;2.63;;;;;;;20.27;37.77;102228.09;16108027;19;129843;-38
2023/05/23 14:03:57;;;;;;;9.10;3.00;;;;;;;20.31;37.71;102228.50;16111290;19;129933;-39
2023/05/23 14:09:18;;;;;;;13.13;2.97;;;;;;;20.32;37.37;102234.91;16118596;19;129633;-37
2023/05/23 14:14:43;;;;;;;18.00;3.43;;;;;;;20.33;37.38;102214.38;16119813;19;130932;-38
2023/05/23 14:20:06;;;;;;;19.88;4.18;;;;;;;20.35;37.83;102217.78;16122639;19;130884;-38
2023/05/23 14:25:29;;;;;;;19.75;3.70;;;;;;;20.33;37.62;102222.72;16122149;19;130846;-38
2023/05/23 14:30:51;;;;;;;14.30;3.35;;;;;;;20.32;37.80;102218.22;16123537;19;131272;-38
2023/05/23 14:36:13;;;;;;;15.75;3.65;;;;;;;20.32;37.65;102224.66;16122371;19;129530;-39
2023/05/23 14:41:35;;;;;;;16.55;2.88;;;;;;;20.29;37.46;102216.75;16123967;19;129387;-38
2023/05/23 14:46:57;;;;;;;14.63;2.88;;;;;;;20.33;37.38;102212.47;16121940;19;131187;-39
2023/05/23 14:52:19;;;;;;;24.60;3.63;;;;;;;20.37;37.71;102215.63;16119554;19;130226;-39
2023/05/23 14:57:41;;;;;;;15.38;3.28;;;;;;;20.36;37.59;102208.38;16121649;19;130976;-38
2023/05/23 15:03:03;;;;;;;17.80;3.10;;;;;;;20.32;37.39;102209.88;16120482;19;130421;-38
2023/05/23 15:08:25;;;;;;;13.63;2.95;;;;;;;20.29;37.23;102197.31;16115386;19;131978;-38
2023/05/23 15:13:47;;;;;;;13.13;3.35;;;;;;;20.25;37.41;102208.03;16121659;19;129560;-39
2023/05/23 15:19:09;;;;;;;16.70;3.90;;;;;;;20.27;37.48;102205.00;16115153;19;129873;-38
2023/05/23 15:24:31;;;;;;;14.38;3.10;;;;;;;20.27;37.56;102216.13;16114274;19;131178;-38
2023/05/23 15:29:55;;;;;;;11.75;2.90;;;;;;;20.26;37.90;102206.09;16120617;19;130687;-38
2023/05/23 15:35:17;;;;;;;11.18;2.90;;;;;;;20.26;37.49;102209.72;16117652;19;129604;-39
2023/05/23 15:40:40;;;;;;;11.30;2.55;;;;;;;20.23;37.18;102201.84;16118792;19;130532;-38
2023/05/23 15:46:03;;;;;;;17.70;3.35;;;;;;;20.21;37.18;102206.78;16117685;19;131646;-40
2023/05/23 15:51:25;;;;;;;10.32;3.25;;;;;;;20.20;36.80;102205.06;16116820;19;131059;-38
2023/05/23 15:56:47;;;;;;;12.82;2.75;;;;;;;20.18;37.11;102207.25;16113174;19;130415;-38
2023/05/23 16:02:09;;;;;;;14.07;3.20;;;;;;;20.17;36.93;102210.22;16116535;19;130272;-42
2023/05/23 16:07:31;;;;;;;11.23;2.75;;;;;;;20.16;36.83;102214.94;16113164;19;131438;-38
2023/05/23 16:12:53;;;;;;;18.52;3.47;;;;;;;20.14;37.02;102223.50;16112769;19;129728;-38
2023/05/23 16:18:15;;;;;;;19.85;3.65;;;;;;;20.16;36.73;102223.28;16114670;19;132400;-38
2023/05/23 16:23:37;;;;;;;22.48;2.72;;;;;;;20.17;36.65;102216.66;16116122;19;131104;-42
2023/05/23 16:28:59;;;;;;;18.38;3.45;;;;;;;20.21;36.97;102212.31;16112478;19;129118;-38
2023/05/23 16:34:20;;;;;;;16.25;3.13;;;;;;;20.22;37.00;102211.25;16111514;19;129328;-38
2023/05/23 16:39:42;;;;;;;15.50;3.08;;;;;;;20.18;37.05;102218.34;16111414;19;129654;-38
2023/05/23 16:45:05;;;;;;;15.20;3.53;;;;;;;20.14;36.86;102225.44;16113304;19;130535;-38
2023/05/23 16:50:27;;;;;;;15.63;3.10;;;;;;;20.09;37.31;102220.56;16115025;19;129661;-37
2023/05/23 16:55:49;;;;;;;13.85;3.05;;;;;;;20.06;36.81;102220.16;16106151;19;130967;-37
2023/05/23 17:01:12;;;;;;;12.57;2.88;;;;;;;20.02;37.34;102219.72;16108093;19;130127;-38
2023/05/23 17:06:34;;;;;;;14.65;3.40;;;;;;;19.98;37.36;102221.25;16110410;19;129955;-37
2023/05/23 17:11:55;;;;;;;11.32;2.20;;;;;;;19.95;37.06;102224.47;16111800;19;129584;-37
2023/05/23 17:17:17;;;;;;;13.60;3.33;;;;;;;19.90;37.56;102216.81;16111389;19;130772;-40
2023/05/23 17:22:40;;;;;;;15.30;3.13;;;;;;;19.90;37.47;102229.81;16110510;19;130895;-38
2023/05/23 17:28:02;;;;;;;15.93;2.85;;;;;;;19.90;37.32;102229.81;16111416;19;129965;-39
2023/05/23 17:33:24;;;;;;;16.65;3.00;;;;;;;19.89;37.47;102226.22;16111391;19;129648;-40
2023/05/23 17:38:46;;;;;;;15.02;3.17;;;;;;;19.90;37.40;102236.25;16110516;19;132115;-39
2023/05/23 17:44:08;;;;;;;16.02;2.85;;;;;;;19.90;37.16;102236.25;16121170;19;130151;-42
2023/05/23 17:49:30;;;;;;;15.88;2.75;;;;;;;19.88;37.26;102235.63;16125895;19;130345;-39
2023/05/23 17:54:52;;;;;;;20.60;3.33;;;;;;;19.89;37.40;102234.53;16125124;19;129642;-39
2023/05/23 18:00:15;;;;;;;14.95;2.88;;;;;;;19.90;37.87;102243.72;16122943;19;129560;-41
2023/05/23 18:05:36;;;;;;;19.38;3.17;;;;;;;19.91;37.93;102240.72;16125948;19;129348;-43
2023/05/23 18:10:58;;;;;;;22.67;3.50;;;;;;;19.91;38.02;102253.75;16122402;19;130094;-38
2023/05/23 18:16:20;;;;;;;14.48;2.80;;;;;;;19.91;37.80;102262.94;16126314;19;129642;-42
2023/05/23 18:21:42;;;;;;;14.93;2.92;;;;;;;19.93;38.01;102269.13;16124589;19;131052;-38
2023/05/23 18:27:05;;;;;;;10.80;2.60;;;;;;;19.95;37.99;102261.41;16122698;19;129682;-42
2023/05/23 18:32:26;;;;;;;19.13;3.10;;;;;;;19.95;38.12;102261.41;16124624;19;131526;-39
2023/05/23 18:37:48;;;;;;;13.73;3.00;;;;;;;19.96;38.00;102265.88;16122387;19;131176;-41
2023/05/23 18:43:12;;;;;;;16.08;3.10;;;;;;;19.97;38.32;102266.75;16121091;19;131481;-39
2023/05/23 18:48:34;;;;;;;10.63;2.47;;;;;;;19.98;38.50;102274.03;16121882;19;131358;-38
2023/05/23 18:53:57;;;;;;;14.68;2.75;;;;;;;19.97;38.09;102278.72;16119209;19;129853;-39
2023/05/23 18:59:18;;;;;;;8.70;2.13;;;;;;;19.93;38.20;102285.81;16115042;19;130650;-38
2023/05/23 19:04:40;;;;;;;17.63;3.08;;;;;;;19.93;38.52;102305.25;16107831;19;130711;-38
2023/05/23 19:10:02;;;;;;;14.02;2.60;;;;;;;19.93;38.13;102299.69;16111238;19;130552;-38
2023/05/23 19:15:24;;;;;;;13.30;2.85;;;;;;;19.91;38.12;102299.06;16111049;19;131626;-39
2023/05/23 19:20:46;;;;;;;9.02;2.53;;;;;;;19.93;38.63;102308.03;16114496;19;132294;-38
2023/05/23 19:26:09;;;;;;;9.85;2.55;;;;;;;19.92;38.80;102322.97;16117999;19;130699;-37
2023/05/23 19:31:31;;;;;;;10.27;1.95;;;;;;;19.94;38.70;102331.06;16113397;19;130988;-38
2023/05/23 19:36:53;;;;;;;8.60;2.47;;;;;;;19.93;38.57;102333.03;16116787;19;129650;-38
2023/05/23 19:42:15;;;;;;;27.67;2.65;;;;;;;19.88;38.70;102337.53;16114376;19;130445;-39
2023/05/23 19:47:37;;;;;;;19.95;2.53;;;;;;;19.90;39.26;102336.22;16114413;19;132315;-38
2023/05/23 19:52:59;;;;;;;27.38;3.35;;;;;;;19.90;38.86;102355.66;16121285;19;130721;-39
2023/05/23 19:58:21;;;;;;;16.08;2.97;;;;;;;19.92;38.89;102353.53;16115226;19;130123;-38
2023/05/23 20:03:43;;;;;;;25.23;2.88;;;;;;;19.92;38.86;102359.09;16114126;19;130836;-38
2023/05/23 20:09:05;;;;;;;13.73;2.05;;;;;;;19.92;39.08;102370.19;16115422;19;134202;-38
2023/05/23 20:14:29;;;;;;;8.23;2.08;;;;;;;19.91;39.24;102374.03;16115954;19;131348;-38
2023/05/23 20:19:51;;;;;;;11.43;2.42;;;;;;;19.90;38.99;102375.13;16115930;19;129504;-38
2023/05/23 20:25:13;;;;;;;13.98;2.53;;;;;;;19.91;38.92;102378.72;16115667;19;130568;-38
2023/05/23 20:30:35;;;;;;;11.50;2.72;;;;;;;19.90;39.24;102390.91;16109164;19;131158;-38
2023/05/23 20:35:58;;;;;;;11.93;2.00;;;;;;;19.89;39.40;102397.53;16110872;19;130953;-38
2023/05/23 20:41:20;;;;;;;17.83;2.58;;;;;;;19.88;39.18;102413.34;16110845;19;130303;-38
2023/05/23 20:46:44;;;;;;;11.93;2.72;;;;;;;19.87;39.13;102411.66;16110270;19;131135;-38
2023/05/23 20:52:06;;;;;;;19.83;3.53;;;;;;;19.84;39.26;102412.06;16114523;19;129756;-47
2023/05/23 20:57:28;;;;;;;12.75;2.67;;;;;;;19.83;39.27;102421.47;16119330;19;130378;-43
2023/05/23 21:02:50;;;;;;;10.38;2.70;;;;;;;19.80;39.51;102427.50;16098489;19;130831;-43
2023/05/23 21:08:12;;;;;;;16.15;2.75;;;;;;;19.78;39.29;102412.97;16112194;19;130998;-46
2023/05/23 21:13:34;;;;;;;11.18;2.30;;;;;;;19.76;39.82;102415.09;16117123;19;131069;-44
2023/05/23 21:19:00;;;;;;;16.13;2.50;;;;;;;19.73;39.85;102418.31;16108589;19;129818;-41
2023/05/23 21:24:22;;;;;;;9.55;2.15;;;;;;;19.72;39.55;102416.59;16114505;19;129008;-40
2023/05/23 21:29:46;;;;;;;10.75;2.13;;;;;;;19.69;39.86;102410.41;16112043;19;131060;-39
2023/05/23 21:35:08;;;;;;;13.80;2.33;;;;;;;19.69;40.12;102404.84;16111520;19;130550;-43
2023/05/23 21:40:30;;;;;;;13.68;2.60;;;;;;;19.69;39.97;102413.19;16110513;19;133393;-41
2023/05/23 21:45:52;;;;;;;13.75;2.30;;;;;;;19.68;40.39;102414.28;16104875;19;130479;-43
2023/05/23 21:51:14;;;;;;;11.35;2.45;;;;;;;19.68;40.53;102418.97;16110318;19;129622;-47
2023/05/23 21:56:36;;;;;;;14.70;2.35;;;;;;;19.66;40.22;102413.63;16105133;19;130647;-39
2023/05/23 22:01:58;;;;;;;9.68;2.42;;;;;;;19.66;40.32;102413.63;16107208;19;129552;-41
2023/05/23 22:07:24;;;;;;;9.23;2.40;;;;;;;19.65;40.48;102419.38;16104592;19;132397;-39
2023/05/23 22:12:45;;;;;;;10.75;2.40;;;;;;;19.63;40.73;102422.41;16105252;19;130597;-48
2023/05/23 22:18:07;;;;;;;8.07;2.40;;;;;;;19.63;40.57;102427.94;16106948;19;129525;-45
2023/05/23 22:23:30;;;;;;;6.68;2.00;;;;;;;19.63;40.70;102436.28;16103587;19;129776;-40
2023/05/23 22:28:53;;;;;;;8.80;2.13;;;;;;;19.62;41.03;102426.25;16110362;19;129440;-47
2023/05/23 22:34:15;;;;;;;8.07;2.25;;;;;;;19.61;40.87;102424.53;16119134;19;130716;-39
2023/05/23 22:39:37;;;;;;;15.65;2.50;;;;;;;19.60;41.32;102441.41;16123614;19;131175;-44
2023/05/23 22:44:59;;;;;;;7.85;2.15;;;;;;;19.59;41.32;102443.31;16120325;19;129446;-41
2023/05/23 22:50:21;;;;;;;6.45;1.95;;;;;;;19.57;40.97;102431.56;16120121;19;130584;-39
2023/05/23 22:55:43;;;;;;;8.02;1.60;;;;;;;19.56;41.28;102432.66;16121053;19;129902;-44
2023/05/23 23:01:05;;;;;;;7.32;1.67;;;;;;;19.55;41.55;102414.31;16115154;19;135532;-40
2023/05/23 23:06:28;;;;;;;6.40;2.00;;;;;;;19.56;41.45;102429.03;16120189;19;130356;-46
2023/05/23 23:11:49;;;;;;;8.48;2.10;;;;;;;19.55;41.65;102408.75;16119366;19;130156;-46
2023/05/23 23:17:12;;;;;;;8.10;1.55;;;;;;;19.54;41.33;102404.28;16117256;19;131348;-49
2023/05/23 23:22:35;;;;;;;7.65;1.58;;;;;;;19.54;41.36;102401.50;16116122;19;128855;-41
2023/05/23 23:27:57;;;;;;;7.32;1.92;;;;;;;19.53;41.33;102410.88;16119116;19;129485;-47
2023/05/23 23:33:18;;;;;;;8.07;1.88;;;;;;;19.52;41.51;102414.72;16117777;19;130200;-42
2023/05/23 23:38:40;;;;;;;5.95;1.63;;;;;;;19.51;41.77;102410.25;16116525;19;131109;-38
2023/05/23 23:44:02;;;;;;;5.78;1.67;;;;;;;19.50;41.68;102406.63;16112432;19;129929;-46
2023/05/23 23:49:24;;;;;;;7.35;1.65;;;;;;;19.50;41.88;102411.31;16117187;19;130455;-47
2023/05/23 23:54:46;;;;;;;6.63;1.65;;;;;;;19.49;41.99;102418.81;16114754;19;130812;-48
